createdAt,value
2022-08-28T00:02:15.634Z,62.71
2022-08-28T00:05:10.501Z,62.91
2022-08-28T00:07:53.483Z,62.83
2022-08-28T00:10:44.239Z,62.71
2022-08-28T00:13:39.466Z,62.81
2022-08-28T00:16:39.206Z,62.56
2022-08-28T00:19:41.963Z,62.59
2022-08-28T00:22:38.878Z,62.84
2022-08-28T00:25:30.842Z,62.50
2022-08-28T00:28:39.678Z,62.66
2022-08-28T00:31:13.502Z,62.92
2022-08-28T00:33:51.582Z,62.79
2022-08-28T00:36:31.219Z,63.08
2022-08-28T00:39:26.180Z,62.97
2022-08-28T00:42:20.678Z,62.89
2022-08-28T00:44:57.978Z,63.19
2022-08-28T00:47:51.449Z,63.02
2022-08-28T00:51:00.813Z,62.93
2022-08-28T00:53:35.744Z,63.03
2022-08-28T00:56:15.312Z,63.05
2022-08-28T00:58:57.639Z,63.04
2022-08-28T01:01:32.515Z,63.11
2022-08-28T01:04:41.961Z,62.81
2022-08-28T01:07:20.095Z,63.14
2022-08-28T01:10:11.286Z,63.25
2022-08-28T01:13:10.508Z,63.17
2022-08-28T01:16:12.685Z,63.22
2022-08-28T01:19:08.822Z,63.32
2022-08-28T01:22:10.981Z,62.99
2022-08-28T01:24:54.207Z,63.16
2022-08-28T01:27:30.164Z,63.16
2022-08-28T01:30:25.038Z,63.17
2022-08-28T01:33:12.535Z,63.11
2022-08-28T01:36:07.773Z,63.17
2022-08-28T01:38:49.085Z,63.03
2022-08-28T01:41:37.398Z,63.02
2022-08-28T01:44:11.003Z,63.12
2022-08-28T01:47:19.867Z,63.18
2022-08-28T01:49:51.760Z,62.93
2022-08-28T01:52:36.440Z,63.11
2022-08-28T01:55:22.239Z,63.19
2022-08-28T01:58:14.324Z,63.12
2022-08-28T02:00:57.633Z,63.19
2022-08-28T02:03:49.325Z,63.26
2022-08-28T02:06:30.609Z,63.21
2022-08-28T02:09:03.022Z,63.38
2022-08-28T02:11:37.299Z,63.34
2022-08-28T02:14:39.395Z,63.19
2022-08-28T02:17:12.269Z,63.24
2022-08-28T02:19:41.141Z,62.95
2022-08-28T02:22:47.510Z,63.33
2022-08-28T02:25:34.299Z,63.43
2022-08-28T02:28:31.468Z,63.32
2022-08-28T02:31:20.360Z,63.50
2022-08-28T02:34:06.052Z,63.27
2022-08-28T02:36:50.126Z,63.40
2022-08-28T02:39:22.160Z,63.37
2022-08-28T02:42:31.570Z,63.38
2022-08-28T02:45:11.859Z,63.51
2022-08-28T02:47:57.205Z,63.18
2022-08-28T02:50:26.095Z,63.30
2022-08-28T02:52:58.468Z,63.50
2022-08-28T02:56:16.716Z,63.43
2022-08-28T02:58:52.975Z,63.39
2022-08-28T03:01:24.367Z,63.42
2022-08-28T03:03:56.496Z,63.52
2022-08-28T03:06:27.742Z,63.48
2022-08-28T03:09:09.697Z,63.51
2022-08-28T03:11:56.530Z,63.76
2022-08-28T03:14:34.861Z,63.61
2022-08-28T03:17:26.488Z,63.39
2022-08-28T03:20:21.618Z,63.61
2022-08-28T03:23:20.295Z,63.50
2022-08-28T03:26:24.319Z,63.26
2022-08-28T03:29:16.367Z,63.05
2022-08-28T03:32:08.462Z,63.20
2022-08-28T03:34:37.560Z,62.89
2022-08-28T03:37:06.339Z,62.97
2022-08-28T03:39:37.673Z,62.75
2022-08-28T03:42:06.583Z,62.79
2022-08-28T03:44:38.415Z,62.96
2022-08-28T03:47:07.439Z,62.67
2022-08-28T03:49:36.342Z,62.78
2022-08-28T03:52:21.354Z,62.60
2022-08-28T03:55:00.281Z,62.92
2022-08-28T03:57:47.196Z,62.78
2022-08-28T04:00:16.639Z,62.85
2022-08-28T04:03:09.196Z,62.98
2022-08-28T04:05:53.127Z,62.98
2022-08-28T04:08:50.352Z,62.96
2022-08-28T04:11:30.419Z,62.87
2022-08-28T04:14:31.889Z,62.82
2022-08-28T04:17:07.687Z,62.84
2022-08-28T04:19:38.812Z,62.86
2022-08-28T04:22:14.956Z,62.70
2022-08-28T04:24:50.185Z,62.76
2022-08-28T04:27:27.983Z,62.73
2022-08-28T04:30:11.952Z,62.71
2022-08-28T04:32:59.763Z,62.81
2022-08-28T04:35:49.542Z,62.77
2022-08-28T04:38:22.223Z,62.61
2022-08-28T04:41:18.173Z,62.82
2022-08-28T04:43:52.977Z,62.81
2022-08-28T04:46:32.963Z,62.78
2022-08-28T04:49:52.751Z,62.65
2022-08-28T04:52:39.880Z,62.77
2022-08-28T04:55:12.535Z,62.69
2022-08-28T04:57:47.334Z,62.74
2022-08-28T05:00:35.528Z,62.68
2022-08-28T05:03:14.200Z,62.71
2022-08-28T05:05:58.046Z,62.89
2022-08-28T05:08:38.464Z,62.85
2022-08-28T05:11:34.395Z,62.70
2022-08-28T05:14:23.764Z,62.74
2022-08-28T05:17:22.647Z,62.53
2022-08-28T05:19:59.697Z,62.64
2022-08-28T05:22:39.989Z,62.45
2022-08-28T05:25:20.359Z,62.31
2022-08-28T05:27:52.048Z,62.17
2022-08-28T05:30:29.400Z,62.14
2022-08-28T05:33:05.422Z,62.28
2022-08-28T05:35:41.656Z,62.30
2022-08-28T05:38:36.346Z,62.28
2022-08-28T05:41:30.532Z,62.34
2022-08-28T05:44:06.265Z,62.03
2022-08-28T05:46:58.595Z,62.08
2022-08-28T05:49:33.560Z,62.15
2022-08-28T05:52:12.284Z,61.92
2022-08-28T05:54:48.238Z,61.97
2022-08-28T05:57:17.823Z,62.17
2022-08-28T05:59:53.904Z,61.73
2022-08-28T06:02:29.143Z,61.81
2022-08-28T06:05:03.871Z,61.61
2022-08-28T06:07:41.672Z,61.39
2022-08-28T06:10:19.698Z,61.48
2022-08-28T06:12:58.610Z,61.34
2022-08-28T06:15:33.764Z,61.50
2022-08-28T06:18:05.855Z,61.34
2022-08-28T06:20:45.752Z,61.23
2022-08-28T06:23:24.141Z,61.35
2022-08-28T06:26:04.464Z,61.15
2022-08-28T06:28:39.047Z,61.06
2022-08-28T06:31:23.620Z,61.08
2022-08-28T06:34:35.056Z,61.04
2022-08-28T06:37:08.082Z,60.75
2022-08-28T06:39:39.839Z,60.77
2022-08-28T06:42:17.158Z,60.48
2022-08-28T06:45:03.801Z,60.64
2022-08-28T06:47:34.775Z,60.31
2022-08-28T06:50:07.593Z,60.21
2022-08-28T06:52:46.454Z,60.01
2022-08-28T06:55:18.649Z,60.13
2022-08-28T06:57:52.707Z,59.95
2022-08-28T07:00:22.062Z,59.77
2022-08-28T07:02:53.281Z,59.57
2022-08-28T07:05:22.884Z,59.71
2022-08-28T07:07:55.493Z,59.48
2022-08-28T07:10:33.804Z,59.36
2022-08-28T07:13:04.992Z,59.26
2022-08-28T07:15:50.549Z,59.09
2022-08-28T07:18:33.492Z,58.89
2022-08-28T07:21:12.697Z,58.71
2022-08-28T07:23:42.969Z,58.64
2022-08-28T07:26:26.412Z,58.55
2022-08-28T07:29:00.645Z,58.41
2022-08-28T07:31:44.748Z,58.36
2022-08-28T07:34:17.646Z,58.28
2022-08-28T07:36:52.823Z,58.20
2022-08-28T07:39:24.407Z,58.05
2022-08-28T07:41:58.329Z,57.99
2022-08-28T07:44:51.955Z,57.84
2022-08-28T07:47:34.260Z,58.01
2022-08-28T07:50:03.670Z,57.83
2022-08-28T07:52:46.923Z,57.69
2022-08-28T07:55:15.679Z,57.73
2022-08-28T07:58:00.043Z,57.63
2022-08-28T08:00:34.176Z,57.54
2022-08-28T08:03:11.038Z,57.53
2022-08-28T08:05:59.881Z,57.59
2022-08-28T08:08:43.211Z,57.29
2022-08-28T08:11:23.991Z,57.18
2022-08-28T08:13:57.847Z,57.17
2022-08-28T08:16:38.852Z,56.97
2022-08-28T08:19:15.330Z,56.88
2022-08-28T08:21:54.855Z,56.81
2022-08-28T08:24:32.879Z,56.60
2022-08-28T08:27:07.629Z,56.49
2022-08-28T08:29:42.118Z,56.36
2022-08-28T08:32:17.349Z,56.22
2022-08-28T08:34:49.941Z,56.15
2022-08-28T08:37:24.152Z,55.94
2022-08-28T08:40:01.807Z,55.73
2022-08-28T08:42:40.884Z,55.53
2022-08-28T08:45:21.756Z,55.40
2022-08-28T08:47:56.049Z,55.32
2022-08-28T08:50:39.294Z,55.19
2022-08-28T08:53:48.212Z,55.08
2022-08-28T08:56:24.184Z,54.95
2022-08-28T08:59:10.469Z,54.88
2022-08-28T09:01:51.279Z,54.65
2022-08-28T09:04:35.267Z,54.62
2022-08-28T09:07:38.278Z,54.39
2022-08-28T09:10:29.198Z,54.34
2022-08-28T09:13:26.451Z,54.11
2022-08-28T09:16:06.004Z,54.01
2022-08-28T09:18:47.271Z,53.71
2022-08-28T09:21:29.585Z,53.66
2022-08-28T09:24:11.979Z,53.62
2022-08-28T09:26:52.430Z,53.32
2022-08-28T09:29:36.935Z,53.45
2022-08-28T09:32:33.877Z,53.03
2022-08-28T09:35:28.585Z,52.94
2022-08-28T09:38:23.209Z,52.75
2022-08-28T09:41:30.564Z,52.46
2022-08-28T09:43:59.729Z,52.46
2022-08-28T09:46:32.378Z,52.41
2022-08-28T09:49:14.919Z,52.03
2022-08-28T09:52:01.846Z,52.04
2022-08-28T09:54:45.688Z,51.60
2022-08-28T09:57:44.467Z,51.54
2022-08-28T10:00:20.833Z,51.27
2022-08-28T10:03:18.906Z,51.10
2022-08-28T10:06:15.957Z,51.08
2022-08-28T10:09:25.104Z,50.73
2022-08-28T10:12:18.940Z,50.47
2022-08-28T10:15:02.707Z,50.61
2022-08-28T10:18:10.511Z,50.23
2022-08-28T10:20:48.718Z,50.15
2022-08-28T10:23:44.437Z,49.78
2022-08-28T10:26:36.778Z,49.73
2022-08-28T10:29:35.776Z,49.46
2022-08-28T10:32:54.569Z,49.12
2022-08-28T10:35:54.756Z,49.11
2022-08-28T10:38:52.944Z,48.33
2022-08-28T10:41:29.001Z,48.38
2022-08-28T10:44:02.728Z,48.07
2022-08-28T10:46:41.766Z,47.85
2022-08-28T10:49:10.955Z,47.73
2022-08-28T10:52:07.465Z,47.48
2022-08-28T10:54:42.438Z,47.04
2022-08-28T10:57:41.578Z,47.47
2022-08-28T11:00:18.135Z,47.19
2022-08-28T11:03:22.278Z,46.97
2022-08-28T11:06:05.956Z,46.71
2022-08-28T11:08:38.118Z,46.67
2022-08-28T11:11:13.330Z,46.72
2022-08-28T11:14:00.037Z,46.45
2022-08-28T11:16:34.518Z,46.04
2022-08-28T11:19:34.080Z,45.91
2022-08-28T11:22:30.197Z,45.60
2022-08-28T11:25:26.509Z,45.36
2022-08-28T11:28:24.302Z,45.26
2022-08-28T11:30:58.563Z,45.03
2022-08-28T11:33:53.125Z,44.80
2022-08-28T11:36:23.972Z,44.68
2022-08-28T11:38:53.131Z,44.47
2022-08-28T11:41:30.462Z,44.15
2022-08-28T11:44:20.314Z,44.26
2022-08-28T11:46:51.931Z,44.26
2022-08-28T11:49:26.747Z,44.01
2022-08-28T11:52:16.030Z,43.74
2022-08-28T11:54:44.652Z,43.16
2022-08-28T11:57:28.696Z,43.25
2022-08-28T12:00:00.276Z,42.45
2022-08-28T12:02:41.078Z,42.42
2022-08-28T12:05:32.747Z,42.19
2022-08-28T12:08:05.321Z,41.66
2022-08-28T12:10:34.519Z,41.39
2022-08-28T12:13:09.196Z,41.44
2022-08-28T12:15:41.300Z,41.05
2022-08-28T12:18:09.998Z,41.14
2022-08-28T12:20:59.983Z,40.84
2022-08-28T12:23:35.237Z,40.38
2022-08-28T12:26:10.060Z,40.36
2022-08-28T12:28:52.878Z,40.13
2022-08-28T12:32:09.479Z,39.85
2022-08-28T12:34:50.270Z,40.17
2022-08-28T12:37:51.261Z,40.37
2022-08-28T12:40:29.195Z,40.83
2022-08-28T12:43:00.352Z,40.81
2022-08-28T12:45:32.505Z,41.02
2022-08-28T12:48:06.136Z,40.93
2022-08-28T12:50:38.594Z,40.83
2022-08-28T12:53:16.450Z,40.52
2022-08-28T12:55:46.833Z,41.05
2022-08-28T12:58:32.499Z,41.02
2022-08-28T13:01:23.966Z,41.11
2022-08-28T13:04:01.609Z,41.22
2022-08-28T13:06:35.978Z,41.42
2022-08-28T13:09:14.292Z,41.42
2022-08-28T13:11:51.567Z,41.18
2022-08-28T13:14:44.372Z,40.83
2022-08-28T13:17:17.744Z,40.50
2022-08-28T13:20:02.247Z,40.31
2022-08-28T13:22:34.802Z,39.89
2022-08-28T13:25:04.552Z,39.54
2022-08-28T13:27:34.404Z,39.20
2022-08-28T13:30:06.081Z,39.42
2022-08-28T13:32:39.635Z,39.46
2022-08-28T13:35:40.119Z,39.27
2022-08-28T13:38:14.094Z,38.78
2022-08-28T13:40:59.188Z,38.60
2022-08-28T13:43:42.016Z,38.44
2022-08-28T13:46:10.623Z,38.38
2022-08-28T13:48:51.505Z,38.90
2022-08-28T13:51:24.515Z,38.99
2022-08-28T13:53:53.869Z,39.12
2022-08-28T13:56:22.987Z,39.33
2022-08-28T13:58:57.709Z,39.57
2022-08-28T14:01:49.655Z,39.83
2022-08-28T14:04:18.214Z,40.08
2022-08-28T14:06:50.932Z,40.39
2022-08-28T14:09:20.524Z,40.67
2022-08-28T14:11:51.278Z,40.56
2022-08-28T14:14:34.445Z,40.76
2022-08-28T14:17:08.481Z,40.55
2022-08-28T14:19:38.195Z,40.75
2022-08-28T14:22:09.477Z,40.68
2022-08-28T14:24:44.118Z,40.78
2022-08-28T14:27:16.086Z,41.04
2022-08-28T14:29:44.789Z,41.15
2022-08-28T14:32:22.083Z,41.49
2022-08-28T14:34:56.158Z,41.99
2022-08-28T14:37:25.051Z,42.12
2022-08-28T14:39:56.877Z,42.36
2022-08-28T14:42:31.769Z,42.49
2022-08-28T14:45:04.049Z,42.62
2022-08-28T14:47:36.412Z,42.81
2022-08-28T14:50:08.306Z,42.94
2022-08-28T14:52:40.657Z,43.03
2022-08-28T14:55:11.152Z,43.26
2022-08-28T14:57:43.239Z,43.43
2022-08-28T15:00:24.017Z,43.48
2022-08-28T15:02:59.735Z,43.41
2022-08-28T15:05:29.618Z,43.62
2022-08-28T15:08:01.431Z,43.70
2022-08-28T15:10:32.574Z,43.90
2022-08-28T15:13:13.041Z,43.85
2022-08-28T15:15:50.524Z,43.74
2022-08-28T15:18:25.154Z,43.80
2022-08-28T15:21:00.032Z,43.79
2022-08-28T15:23:37.885Z,43.65
2022-08-28T15:26:15.534Z,43.49
2022-08-28T15:28:56.073Z,43.45
2022-08-28T15:31:25.267Z,43.26
2022-08-28T15:33:57.201Z,43.17
2022-08-28T15:36:26.578Z,43.20
2022-08-28T15:39:16.827Z,42.99
2022-08-28T15:41:47.118Z,42.93
2022-08-28T15:44:18.191Z,43.03
2022-08-28T15:47:06.372Z,43.02
2022-08-28T15:49:49.670Z,43.23
2022-08-28T15:52:26.908Z,43.33
2022-08-28T15:54:58.988Z,43.46
2022-08-28T15:57:31.031Z,43.73
2022-08-28T16:00:09.779Z,43.85
2022-08-28T16:02:44.877Z,43.98
2022-08-28T16:05:19.216Z,44.22
2022-08-28T16:07:57.438Z,44.38
2022-08-28T16:10:26.352Z,44.47
2022-08-28T16:12:57.440Z,44.49
2022-08-28T16:15:27.286Z,44.62
2022-08-28T16:17:59.254Z,44.99
2022-08-28T16:20:39.369Z,45.14
2022-08-28T16:23:11.978Z,45.36
2022-08-28T16:25:43.360Z,45.68
2022-08-28T16:28:14.837Z,45.89
2022-08-28T16:30:46.967Z,46.05
2022-08-28T16:33:21.161Z,46.39
2022-08-28T16:36:02.183Z,46.48
2022-08-28T16:38:35.326Z,46.63
2022-08-28T16:41:16.486Z,46.86
2022-08-28T16:44:05.567Z,47.01
2022-08-28T16:46:34.634Z,47.31
2022-08-28T16:49:06.467Z,47.58
2022-08-28T16:51:48.503Z,47.72
2022-08-28T16:54:24.991Z,48.18
2022-08-28T16:57:06.786Z,48.39
2022-08-28T16:59:53.149Z,48.63
2022-08-28T17:02:26.701Z,48.78
2022-08-28T17:05:00.590Z,49.27
2022-08-28T17:07:35.652Z,49.80
2022-08-28T17:10:09.254Z,49.93
2022-08-28T17:12:50.021Z,49.94
2022-08-28T17:15:31.523Z,50.21
2022-08-28T17:18:12.332Z,50.76
2022-08-28T17:21:06.333Z,50.81
2022-08-28T17:23:50.173Z,51.28
2022-08-28T17:26:22.341Z,51.52
2022-08-28T17:29:01.984Z,51.67
2022-08-28T17:31:51.392Z,52.08
2022-08-28T17:34:25.767Z,52.22
2022-08-28T17:37:07.363Z,52.35
2022-08-28T17:39:43.934Z,52.65
2022-08-28T17:42:39.756Z,52.82
2022-08-28T17:45:24.165Z,52.86
2022-08-28T17:48:05.496Z,52.96
2022-08-28T17:50:51.485Z,53.42
2022-08-28T17:53:46.998Z,53.53
2022-08-28T17:56:16.299Z,53.75
2022-08-28T17:58:45.710Z,53.70
2022-08-28T18:01:22.009Z,54.03
2022-08-28T18:03:53.126Z,53.97
2022-08-28T18:06:25.279Z,54.24
2022-08-28T18:08:54.680Z,54.34
2022-08-28T18:11:31.422Z,54.56
2022-08-28T18:14:20.455Z,54.60
2022-08-28T18:17:34.776Z,54.83
2022-08-28T18:20:12.469Z,55.06
2022-08-28T18:22:47.435Z,55.21
2022-08-28T18:25:40.591Z,55.02
2022-08-28T18:28:39.867Z,55.25
2022-08-28T18:31:38.591Z,55.37
2022-08-28T18:34:33.276Z,55.47
2022-08-28T18:37:12.611Z,55.60
2022-08-28T18:40:04.425Z,55.84
2022-08-28T18:42:41.872Z,56.07
2022-08-28T18:45:31.995Z,55.95
2022-08-28T18:48:46.772Z,56.29
2022-08-28T18:51:24.048Z,56.33
2022-08-28T18:54:01.726Z,56.64
2022-08-28T18:56:33.729Z,56.57
2022-08-28T18:59:10.482Z,57.12
2022-08-28T19:01:39.857Z,56.83
2022-08-28T19:04:20.104Z,57.11
2022-08-28T19:06:51.722Z,57.28
2022-08-28T19:09:46.708Z,57.28
2022-08-28T19:12:18.744Z,57.27
2022-08-28T19:15:18.389Z,57.58
2022-08-28T19:18:01.577Z,57.56
2022-08-28T19:20:39.089Z,57.75
2022-08-28T19:23:22.090Z,57.78
2022-08-28T19:26:01.179Z,57.83
2022-08-28T19:28:50.823Z,58.00
2022-08-28T19:31:31.095Z,58.34
2022-08-28T19:34:11.440Z,57.92
2022-08-28T19:36:48.181Z,58.33
2022-08-28T19:39:32.874Z,58.61
2022-08-28T19:42:17.974Z,58.56
2022-08-28T19:45:18.580Z,58.67
2022-08-28T19:47:47.981Z,58.78
2022-08-28T19:50:25.752Z,58.72
2022-08-28T19:53:06.537Z,58.88
2022-08-28T19:55:38.233Z,58.96
2022-08-28T19:58:12.544Z,59.22
2022-08-28T20:00:53.885Z,59.02
2022-08-28T20:03:30.689Z,59.32
2022-08-28T20:06:14.766Z,59.47
2022-08-28T20:08:50.020Z,59.52
2022-08-28T20:11:47.758Z,59.54
2022-08-28T20:14:47.686Z,59.75
2022-08-28T20:17:31.188Z,59.97
2022-08-28T20:20:08.569Z,59.88
2022-08-28T20:22:43.618Z,60.06
2022-08-28T20:25:36.781Z,60.25
2022-08-28T20:28:34.948Z,60.28
2022-08-28T20:31:36.504Z,60.45
2022-08-28T20:34:32.944Z,60.52
2022-08-28T20:37:11.399Z,60.54
2022-08-28T20:39:58.538Z,60.80
2022-08-28T20:42:35.987Z,61.02
2022-08-28T20:45:09.363Z,61.01
2022-08-28T20:47:44.935Z,61.15
2022-08-28T20:50:15.540Z,61.29
2022-08-28T20:52:48.139Z,61.40
2022-08-28T20:55:20.289Z,61.22
2022-08-28T20:57:52.543Z,61.41
2022-08-28T21:00:30.276Z,61.79
2022-08-28T21:03:02.372Z,61.38
2022-08-28T21:05:47.267Z,61.64
2022-08-28T21:08:18.017Z,61.96
2022-08-28T21:10:54.495Z,61.99
2022-08-28T21:13:39.862Z,61.93
2022-08-28T21:16:11.702Z,62.12
2022-08-28T21:18:59.284Z,62.07
2022-08-28T21:21:32.599Z,62.35
2022-08-28T21:24:03.467Z,62.41
2022-08-28T21:26:45.634Z,62.49
2022-08-28T21:29:25.430Z,62.25
2022-08-28T21:31:57.458Z,62.61
2022-08-28T21:34:36.523Z,62.55
2022-08-28T21:37:06.705Z,62.79
2022-08-28T21:39:51.001Z,62.64
2022-08-28T21:42:22.440Z,62.74
2022-08-28T21:44:54.687Z,62.68
2022-08-28T21:47:38.382Z,62.83
2022-08-28T21:50:18.342Z,63.16
2022-08-28T21:52:49.984Z,63.06
2022-08-28T21:55:18.648Z,63.11
2022-08-28T21:57:59.590Z,63.04
2022-08-28T22:00:33.839Z,63.06
2022-08-28T22:03:02.919Z,62.98
2022-08-28T22:05:37.317Z,63.07
2022-08-28T22:08:06.309Z,63.26
2022-08-28T22:10:40.483Z,63.27
2022-08-28T22:13:17.024Z,63.39
2022-08-28T22:15:54.007Z,63.55
2022-08-28T22:18:32.074Z,63.55
2022-08-28T22:21:25.277Z,63.47
2022-08-28T22:24:03.925Z,63.34
2022-08-28T22:26:35.679Z,63.63
2022-08-28T22:29:27.715Z,63.55
2022-08-28T22:31:56.760Z,63.31
2022-08-28T22:34:49.562Z,63.40
2022-08-28T22:37:18.283Z,63.54
2022-08-28T22:39:52.525Z,63.68
2022-08-28T22:42:21.312Z,63.47
2022-08-28T22:44:53.179Z,63.60
2022-08-28T22:47:21.975Z,63.62
2022-08-28T22:49:56.183Z,63.79
2022-08-28T22:52:33.020Z,63.85
2022-08-28T22:55:12.520Z,63.72
2022-08-28T22:57:44.983Z,63.54
2022-08-28T23:00:20.498Z,63.71
2022-08-28T23:02:58.394Z,63.73
2022-08-28T23:05:29.195Z,63.89
2022-08-28T23:07:57.847Z,63.75
2022-08-28T23:10:55.588Z,63.66
2022-08-28T23:13:45.388Z,63.85
2022-08-28T23:16:24.263Z,63.88
2022-08-28T23:19:09.036Z,64.00
2022-08-28T23:21:44.017Z,64.04
2022-08-28T23:24:25.449Z,64.05
2022-08-28T23:27:35.745Z,64.04
2022-08-28T23:30:20.989Z,64.19
2022-08-28T23:33:04.178Z,64.20
2022-08-28T23:35:43.766Z,64.52
2022-08-28T23:38:45.251Z,64.34
2022-08-28T23:41:32.065Z,64.59
2022-08-28T23:44:12.217Z,64.67
2022-08-28T23:46:46.858Z,64.87
2022-08-28T23:49:26.243Z,64.78
2022-08-28T23:52:07.723Z,64.90
2022-08-28T23:54:46.821Z,65.14
2022-08-28T23:57:18.755Z,65.05
2022-08-28T23:59:54.374Z,65.09
